Time;durP1;ratioP1;P1;durP2;ratioP2;P2;SDS_P1;SDS_P2;PMS_P1;PMS_P2;Temp;Humidity;BMP_temperature;BMP_pressure;BME280_temperature;BME280_humidity;BME280_pressure;Samples;Min_cycle;Max_cycle;Signal;HPM_P1;HPM_P2
2022/11/20 00:01:20;;;;;;;;;;;3.00;90.20;;;;;;5001804;28;19913;-46
2022/11/20 00:03:47;;;;;;;;;;;3.00;90.20;;;;;;5013532;28;19912;-46
2022/11/20 00:06:16;;;;;;;;;;;3.00;90.30;;;;;;5012706;28;20381;-47
2022/11/20 00:08:43;;;;;;;;;;;3.00;90.40;;;;;;5013322;28;19917;-46
2022/11/20 00:11:14;;;;;;;;;;;3.00;90.40;;;;;;5011051;28;19953;-46
2022/11/20 00:13:41;;;;;;;;;;;3.00;90.30;;;;;;5013679;28;19906;-46
2022/11/20 00:16:11;;;;;;;;;;;3.00;90.30;;;;;;5013372;28;19905;-46
2022/11/20 00:18:39;;;;;;;;;;;3.00;90.30;;;;;;5006108;28;19917;-46
2022/11/20 00:21:09;;;;;;;;;;;3.00;90.20;;;;;;4993744;28;19909;-46
2022/11/20 00:23:36;;;;;;;;;;;3.00;90.20;;;;;;4997759;28;20235;-47
2022/11/20 00:26:08;;;;;;;;;;;3.00;90.20;;;;;;5002501;28;20293;-46
2022/11/20 00:28:35;;;;;;;;;;;3.00;90.00;;;;;;4994182;28;19910;-46
2022/11/20 00:31:06;;;;;;;;;;;3.00;90.10;;;;;;4993635;28;19959;-47
2022/11/20 00:33:35;;;;;;;;;;;3.00;90.10;;;;;;5009079;28;20383;-47
2022/11/20 00:36:03;;;;;;;;;;;3.00;90.00;;;;;;4993580;28;20782;-47
2022/11/20 00:38:31;;;;;;;;;;;3.00;89.90;;;;;;5009714;28;19981;-47
2022/11/20 00:40:58;;;;;;;;;;;3.00;89.80;;;;;;5011441;28;19909;-46
2022/11/20 00:43:25;;;;;;;;;;;3.00;89.70;;;;;;5014640;28;19946;-46
2022/11/20 00:46:02;;;;;;;;;;;2.90;89.80;;;;;;5014139;28;19952;-46
2022/11/20 00:48:29;;;;;;;;;;;2.90;89.80;;;;;;5016796;28;19951;-46
2022/11/20 00:50:56;;;;;;;;;;;2.90;89.90;;;;;;5015785;28;19925;-47
2022/11/20 00:53:24;;;;;;;;;;;2.90;89.90;;;;;;5011903;28;19914;-46
2022/11/20 00:55:56;;;;;;;;;;;2.90;90.00;;;;;;5000001;28;19916;-46
2022/11/20 00:58:23;;;;;;;;;;;3.00;90.00;;;;;;5015889;28;19940;-45
2022/11/20 01:00:50;;;;;;;;;;;3.00;90.00;;;;;;5016871;28;19917;-46
2022/11/20 01:03:18;;;;;;;;;;;2.90;90.00;;;;;;5006145;28;20247;-46
2022/11/20 01:05:44;;;;;;;;;;;3.00;90.00;;;;;;5004436;28;19917;-45
2022/11/20 01:08:10;;;;;;;;;;;2.90;90.00;;;;;;5009310;28;20374;-46
2022/11/20 01:10:40;;;;;;;;;;;2.90;90.00;;;;;;5015016;28;19905;-46
2022/11/20 01:15:50;;;;;;;;;;;2.90;90.00;;;;;;4999169;28;19967;-46
2022/11/20 01:18:17;;;;;;;;;;;2.90;90.00;;;;;;4996947;28;19963;-46
2022/11/20 01:20:44;;;;;;;;;;;2.90;89.80;;;;;;5009843;28;19921;-46
2022/11/20 01:23:11;;;;;;;;;;;2.90;90.00;;;;;;5016743;28;19914;-45
2022/11/20 01:25:38;;;;;;;;;;;2.90;90.00;;;;;;5008146;28;19917;-46
2022/11/20 01:28:05;;;;;;;;;;;2.90;89.90;;;;;;5013334;28;19909;-45
2022/11/20 01:30:31;;;;;;;;;;;2.90;89.90;;;;;;5016196;28;19932;-46
2022/11/20 01:32:58;;;;;;;;;;;2.90;89.80;;;;;;5015493;28;19985;-46
2022/11/20 01:35:23;;;;;;;;;;;2.90;89.80;;;;;;5013616;28;19913;-45
2022/11/20 01:37:50;;;;;;;;;;;2.90;89.90;;;;;;5016477;28;19970;-45
2022/11/20 01:40:17;;;;;;;;;;;2.90;89.90;;;;;;5015111;28;19975;-46
2022/11/20 01:45:50;;;;;;;;;;;2.90;89.90;;;;;;5012954;28;19937;-45
2022/11/20 01:48:17;;;;;;;;;;;2.90;89.80;;;;;;4999124;28;19913;-46
2022/11/20 01:50:44;;;;;;;;;;;2.90;89.90;;;;;;5012845;28;19917;-46
2022/11/20 01:53:14;;;;;;;;;;;2.90;89.80;;;;;;4995759;28;19944;-45
2022/11/20 01:55:43;;;;;;;;;;;2.90;89.50;;;;;;4996291;28;20227;-45
2022/11/20 01:58:08;;;;;;;;;;;2.90;89.60;;;;;;5007471;28;19920;-45
2022/11/20 02:00:34;;;;;;;;;;;2.80;89.60;;;;;;4996249;28;19910;-45
2022/11/20 02:03:07;;;;;;;;;;;2.80;89.60;;;;;;5003566;28;19909;-46
2022/11/20 02:05:53;;;;;;;;;;;2.80;89.60;;;;;;5015780;28;19909;-46
2022/11/20 02:08:20;;;;;;;;;;;2.80;89.70;;;;;;5015302;28;19921;-45
2022/11/20 02:10:47;;;;;;;;;;;2.70;89.70;;;;;;5010517;28;19913;-45
2022/11/20 02:16:00;;;;;;;;;;;2.70;89.80;;;;;;5015514;28;19959;-45
2022/11/20 02:18:27;;;;;;;;;;;2.70;89.80;;;;;;5001016;28;19971;-45
2022/11/20 02:21:00;;;;;;;;;;;2.70;89.90;;;;;;4996042;28;20255;-47
2022/11/20 02:23:26;;;;;;;;;;;2.70;90.00;;;;;;4995786;28;19914;-45
2022/11/20 02:25:52;;;;;;;;;;;2.70;90.00;;;;;;5010026;28;19939;-48
2022/11/20 02:28:19;;;;;;;;;;;2.70;90.00;;;;;;5007371;28;20124;-45
2022/11/20 02:30:46;;;;;;;;;;;2.70;90.10;;;;;;5015187;28;19909;-44
2022/11/20 02:33:13;;;;;;;;;;;2.70;90.20;;;;;;5012805;28;19913;-45
2022/11/20 02:35:40;;;;;;;;;;;2.80;90.10;;;;;;5015514;28;20295;-46
2022/11/20 02:38:08;;;;;;;;;;;2.70;90.30;;;;;;4996184;28;20247;-45
2022/11/20 02:40:34;;;;;;;;;;;2.70;90.50;;;;;;5012444;28;19920;-49
2022/11/20 02:43:01;;;;;;;;;;;2.60;90.70;;;;;;5014041;28;19948;-56
2022/11/20 02:45:27;;;;;;;;;;;2.50;90.60;;;;;;5014606;28;19917;-57
2022/11/20 02:47:53;;;;;;;;;;;2.50;90.70;;;;;;5013399;28;20024;-57
2022/11/20 02:50:24;;;;;;;;;;;2.40;90.80;;;;;;5014806;28;19905;-56
2022/11/20 02:52:54;;;;;;;;;;;2.50;91.00;;;;;;5011902;28;20393;-58
2022/11/20 02:55:20;;;;;;;;;;;2.40;90.80;;;;;;5012909;28;19944;-58
2022/11/20 02:57:47;;;;;;;;;;;2.30;91.00;;;;;;5013170;28;20343;-59
2022/11/20 03:00:14;;;;;;;;;;;2.20;91.00;;;;;;5006522;28;20498;-60
2022/11/20 03:02:40;;;;;;;;;;;2.20;91.10;;;;;;5009717;28;19922;-57
2022/11/20 03:05:06;;;;;;;;;;;2.20;91.20;;;;;;5008484;28;19924;-54
2022/11/20 03:07:33;;;;;;;;;;;2.20;91.20;;;;;;5011791;28;19918;-50
2022/11/20 03:10:00;;;;;;;;;;;2.20;91.20;;;;;;5014383;28;19905;-51
2022/11/20 03:12:27;;;;;;;;;;;2.20;91.10;;;;;;5008042;28;19910;-50
2022/11/20 03:14:54;;;;;;;;;;;2.30;91.10;;;;;;5011465;28;19909;-51
2022/11/20 03:17:20;;;;;;;;;;;2.30;91.20;;;;;;5002675;28;19909;-48
2022/11/20 03:19:47;;;;;;;;;;;2.30;91.20;;;;;;4994750;28;19906;-49
2022/11/20 03:22:17;;;;;;;;;;;2.30;91.20;;;;;;4998442;28;20025;-48
2022/11/20 03:24:44;;;;;;;;;;;2.20;91.20;;;;;;5009002;28;19910;-49
2022/11/20 03:27:13;;;;;;;;;;;2.30;91.20;;;;;;4994272;28;19993;-47
2022/11/20 03:29:40;;;;;;;;;;;2.20;91.20;;;;;;4996977;28;19910;-50
2022/11/20 03:32:07;;;;;;;;;;;2.20;91.20;;;;;;4994474;28;19909;-47
2022/11/20 03:34:33;;;;;;;;;;;2.20;91.20;;;;;;5001817;28;19916;-47
2022/11/20 03:37:00;;;;;;;;;;;2.30;91.40;;;;;;5011693;28;20281;-47
2022/11/20 03:39:27;;;;;;;;;;;2.30;91.40;;;;;;4999453;28;20263;-47
2022/11/20 03:41:54;;;;;;;;;;;2.30;91.40;;;;;;4994477;28;20327;-47
2022/11/20 03:44:21;;;;;;;;;;;2.30;91.40;;;;;;5002346;28;20275;-47
2022/11/20 03:46:47;;;;;;;;;;;2.30;91.40;;;;;;5011643;28;19920;-47
2022/11/20 03:49:14;;;;;;;;;;;2.30;91.50;;;;;;5013541;28;19939;-49
2022/11/20 03:51:41;;;;;;;;;;;2.20;91.50;;;;;;5005444;28;19909;-47
2022/11/20 03:54:07;;;;;;;;;;;2.30;91.70;;;;;;5012952;28;19916;-47
2022/11/20 03:56:36;;;;;;;;;;;2.30;91.70;;;;;;5010306;28;20325;-47
2022/11/20 03:59:01;;;;;;;;;;;2.40;91.70;;;;;;5011069;28;20339;-50
2022/11/20 04:01:30;;;;;;;;;;;2.40;91.70;;;;;;5012326;28;19967;-52
2022/11/20 04:03:57;;;;;;;;;;;2.40;91.80;;;;;;5012887;28;19961;-53
2022/11/20 04:06:42;;;;;;;;;;;2.40;91.80;;;;;;5004029;28;19917;-50
2022/11/20 04:09:08;;;;;;;;;;;2.40;91.80;;;;;;4993582;28;19917;-52
2022/11/20 04:11:39;;;;;;;;;;;2.40;91.80;;;;;;5011979;28;19909;-48
2022/11/20 04:14:11;;;;;;;;;;;2.40;91.80;;;;;;5011945;28;20001;-50
2022/11/20 04:16:38;;;;;;;;;;;2.50;91.90;;;;;;5019225;28;19959;-49
2022/11/20 04:19:06;;;;;;;;;;;2.50;91.90;;;;;;5002561;28;20003;-47
2022/11/20 04:21:35;;;;;;;;;;;2.50;91.90;;;;;;5001958;28;19956;-47
2022/11/20 04:24:02;;;;;;;;;;;2.50;91.90;;;;;;4993994;28;19906;-48
2022/11/20 04:26:29;;;;;;;;;;;2.50;91.90;;;;;;5001080;28;20009;-47
2022/11/20 04:28:57;;;;;;;;;;;2.50;91.90;;;;;;5009531;28;19919;-48
2022/11/20 04:31:23;;;;;;;;;;;2.50;91.80;;;;;;4996265;28;20339;-47
2022/11/20 04:33:51;;;;;;;;;;;2.50;91.80;;;;;;4993663;28;20231;-47
2022/11/20 04:36:21;;;;;;;;;;;2.50;91.80;;;;;;4993585;28;20355;-46
2022/11/20 04:38:50;;;;;;;;;;;2.50;91.80;;;;;;4993434;28;19925;-46
2022/11/20 04:41:18;;;;;;;;;;;2.50;91.80;;;;;;4997671;28;20350;-47
2022/11/20 04:43:50;;;;;;;;;;;2.40;91.80;;;;;;5005753;28;19910;-47
2022/11/20 04:46:19;;;;;;;;;;;2.40;91.90;;;;;;5009654;28;19913;-46
2022/11/20 04:48:46;;;;;;;;;;;2.40;91.90;;;;;;5008401;28;20000;-46
2022/11/20 04:51:13;;;;;;;;;;;2.40;91.90;;;;;;5013049;28;19992;-46
2022/11/20 04:53:40;;;;;;;;;;;2.50;91.90;;;;;;5012311;28;19905;-47
2022/11/20 04:56:10;;;;;;;;;;;2.40;91.80;;;;;;5009507;28;19959;-47
2022/11/20 04:58:37;;;;;;;;;;;2.40;91.90;;;;;;5003350;28;19963;-47
2022/11/20 05:01:21;;;;;;;;;;;2.40;92.10;;;;;;5009074;28;20335;-49
2022/11/20 05:03:48;;;;;;;;;;;2.40;92.10;;;;;;5011374;28;19952;-57
2022/11/20 05:06:16;;;;;;;;;;;2.40;92.00;;;;;;5009905;28;19913;-58
2022/11/20 05:08:43;;;;;;;;;;;2.30;91.90;;;;;;4995086;28;19987;-58
2022/11/20 05:11:10;;;;;;;;;;;2.30;92.00;;;;;;5011598;28;19909;-56
2022/11/20 05:13:38;;;;;;;;;;;2.20;91.90;;;;;;5011107;28;19917;-51
2022/11/20 05:16:22;;;;;;;;;;;2.20;91.80;;;;;;5001807;28;19921;-50
2022/11/20 05:18:49;;;;;;;;;;;2.20;91.90;;;;;;4995641;28;20028;-54
2022/11/20 05:21:16;;;;;;;;;;;2.20;91.80;;;;;;5007609;28;20005;-52
2022/11/20 05:23:43;;;;;;;;;;;2.20;91.70;;;;;;4992441;28;20306;-49
2022/11/20 05:26:18;;;;;;;;;;;2.20;91.70;;;;;;5000479;28;19917;-52
2022/11/20 05:28:45;;;;;;;;;;;2.20;91.80;;;;;;4995665;28;19909;-56
2022/11/20 05:31:13;;;;;;;;;;;2.20;91.90;;;;;;5014894;28;19913;-57
2022/11/20 05:33:43;;;;;;;;;;;2.20;91.80;;;;;;5015573;28;20346;-57
2022/11/20 05:36:14;;;;;;;;;;;2.20;91.90;;;;;;5011164;28;19941;-56
2022/11/20 05:38:41;;;;;;;;;;;2.20;91.90;;;;;;5022648;28;20406;-56
2022/11/20 05:41:09;;;;;;;;;;;2.20;91.90;;;;;;5013822;28;20333;-59
2022/11/20 05:43:36;;;;;;;;;;;2.20;91.90;;;;;;5012967;28;19974;-59
2022/11/20 05:46:04;;;;;;;;;;;2.20;92.00;;;;;;5012165;28;19909;-59
2022/11/20 05:48:31;;;;;;;;;;;2.20;92.00;;;;;;5014633;28;20000;-60
2022/11/20 05:50:59;;;;;;;;;;;2.20;92.00;;;;;;5015466;28;19917;-58
2022/11/20 05:53:26;;;;;;;;;;;2.20;92.00;;;;;;5015380;28;19924;-59
2022/11/20 05:55:59;;;;;;;;;;;2.20;92.00;;;;;;5012631;28;19909;-60
2022/11/20 05:58:25;;;;;;;;;;;2.20;92.10;;;;;;5015618;28;20354;-58
2022/11/20 06:00:50;;;;;;;;;;;2.20;92.20;;;;;;5012689;28;20000;-56
2022/11/20 06:03:17;;;;;;;;;;;2.20;92.10;;;;;;5006525;28;20323;-59
2022/11/20 06:05:44;;;;;;;;;;;2.20;92.10;;;;;;4995843;28;20044;-59
2022/11/20 06:08:11;;;;;;;;;;;2.20;92.10;;;;;;5012293;28;20337;-59
2022/11/20 06:10:38;;;;;;;;;;;2.20;92.10;;;;;;5010361;28;20479;-60
2022/11/20 06:13:05;;;;;;;;;;;2.20;92.10;;;;;;4999076;28;19910;-58
2022/11/20 06:15:31;;;;;;;;;;;2.20;92.20;;;;;;5013103;28;19913;-58
2022/11/20 06:17:58;;;;;;;;;;;2.20;92.20;;;;;;5014409;28;19916;-58
2022/11/20 06:20:25;;;;;;;;;;;2.20;92.30;;;;;;5000534;28;19909;-59
2022/11/20 06:22:52;;;;;;;;;;;2.20;92.30;;;;;;4995318;28;19909;-55
2022/11/20 06:25:19;;;;;;;;;;;2.20;92.30;;;;;;4997904;28;19928;-57
2022/11/20 06:27:46;;;;;;;;;;;2.30;92.30;;;;;;5008214;28;19918;-57
2022/11/20 06:30:12;;;;;;;;;;;2.30;92.40;;;;;;5011874;28;19909;-59
2022/11/20 06:32:39;;;;;;;;;;;2.30;92.40;;;;;;5012194;28;20388;-59
2022/11/20 06:35:05;;;;;;;;;;;2.30;92.30;;;;;;5010765;28;19979;-55
2022/11/20 06:37:32;;;;;;;;;;;2.30;92.30;;;;;;5013942;28;20331;-59
2022/11/20 06:39:58;;;;;;;;;;;2.30;92.30;;;;;;5013076;28;20000;-57
2022/11/20 06:42:25;;;;;;;;;;;2.30;92.30;;;;;;5012618;28;19909;-59
2022/11/20 06:44:51;;;;;;;;;;;2.30;92.30;;;;;;5012657;28;19913;-59
2022/11/20 06:47:18;;;;;;;;;;;2.30;92.30;;;;;;5013583;28;19916;-59
2022/11/20 06:49:44;;;;;;;;;;;2.20;92.30;;;;;;5013868;28;20231;-54
2022/11/20 06:52:11;;;;;;;;;;;2.20;92.20;;;;;;5012376;28;19919;-56
2022/11/20 06:54:37;;;;;;;;;;;2.20;92.30;;;;;;5014116;28;19914;-52
2022/11/20 06:57:04;;;;;;;;;;;2.20;92.30;;;;;;5013706;28;19948;-56
2022/11/20 06:59:30;;;;;;;;;;;2.20;92.30;;;;;;5011244;28;19913;-52
2022/11/20 07:01:57;;;;;;;;;;;2.20;92.30;;;;;;5011371;28;19994;-52
2022/11/20 07:04:24;;;;;;;;;;;2.20;92.30;;;;;;5010773;28;19917;-50
2022/11/20 07:06:51;;;;;;;;;;;2.20;92.30;;;;;;5013044;28;19913;-49
2022/11/20 07:09:18;;;;;;;;;;;2.20;92.30;;;;;;5007164;28;19924;-49
2022/11/20 07:11:44;;;;;;;;;;;2.20;92.40;;;;;;5009486;28;20406;-50
2022/11/20 07:14:11;;;;;;;;;;;2.30;92.50;;;;;;5009348;28;19917;-51
2022/11/20 07:16:38;;;;;;;;;;;2.30;92.50;;;;;;5011081;28;19971;-57
2022/11/20 07:19:07;;;;;;;;;;;2.30;92.60;;;;;;5012867;28;19909;-60
2022/11/20 07:21:34;;;;;;;;;;;2.30;92.50;;;;;;5005240;28;20384;-60
2022/11/20 07:24:00;;;;;;;;;;;2.40;92.50;;;;;;5011397;28;20277;-52
2022/11/20 07:26:26;;;;;;;;;;;2.30;92.40;;;;;;5011179;28;20008;-49
2022/11/20 07:28:57;;;;;;;;;;;2.20;92.10;;;;;;5011944;28;20000;-50
2022/11/20 07:31:23;;;;;;;;;;;2.20;92.20;;;;;;5006512;28;19909;-47
2022/11/20 07:33:50;;;;;;;;;;;2.10;92.10;;;;;;5009882;28;19920;-47
2022/11/20 07:36:17;;;;;;;;;;;2.10;92.10;;;;;;5011045;28;19932;-47
2022/11/20 07:38:42;;;;;;;;;;;2.10;92.10;;;;;;5013219;28;19913;-47
2022/11/20 07:41:09;;;;;;;;;;;2.00;92.00;;;;;;5013586;28;19909;-48
2022/11/20 07:43:36;;;;;;;;;;;2.00;91.90;;;;;;5012464;28;20339;-52
2022/11/20 07:46:03;;;;;;;;;;;2.00;92.00;;;;;;5009887;28;19918;-51
2022/11/20 07:48:30;;;;;;;;;;;2.00;92.10;;;;;;5013223;28;20008;-56
2022/11/20 07:50:57;;;;;;;;;;;2.00;92.20;;;;;;5012604;28;20004;-52
2022/11/20 07:53:24;;;;;;;;;;;2.00;92.20;;;;;;5009794;28;19917;-54
2022/11/20 07:55:55;;;;;;;;;;;2.00;92.30;;;;;;5013074;28;20232;-56
2022/11/20 07:58:22;;;;;;;;;;;2.10;92.30;;;;;;5010700;28;20043;-60
2022/11/20 08:00:49;;;;;;;;;;;2.10;92.20;;;;;;5010803;28;19920;-61
2022/11/20 08:03:16;;;;;;;;;;;2.00;92.20;;;;;;5012456;28;20023;-61
2022/11/20 08:05:43;;;;;;;;;;;2.10;92.20;;;;;;5008862;28;19921;-60
2022/11/20 08:08:09;;;;;;;;;;;2.10;92.30;;;;;;5012678;28;20339;-60
2022/11/20 08:10:37;;;;;;;;;;;2.20;92.20;;;;;;5011585;28;20004;-60
2022/11/20 08:15:53;;;;;;;;;;;2.20;92.20;;;;;;5010718;28;19920;-57
2022/11/20 08:18:20;;;;;;;;;;;2.30;92.20;;;;;;5012421;28;19953;-59
2022/11/20 08:20:47;;;;;;;;;;;2.40;92.10;;;;;;5010016;28;19909;-56
2022/11/20 08:23:14;;;;;;;;;;;2.40;92.20;;;;;;5012879;28;20468;-57
2022/11/20 08:25:43;;;;;;;;;;;2.40;92.10;;;;;;5011420;28;19921;-55
2022/11/20 08:28:10;;;;;;;;;;;2.40;92.00;;;;;;5008284;28;19910;-51
2022/11/20 08:30:37;;;;;;;;;;;2.40;92.00;;;;;;5002498;28;20294;-49
2022/11/20 08:33:09;;;;;;;;;;;2.40;91.90;;;;;;5012747;28;20313;-51
2022/11/20 08:35:36;;;;;;;;;;;2.40;91.90;;;;;;5004474;28;19924;-49
2022/11/20 08:38:05;;;;;;;;;;;2.50;91.90;;;;;;5010108;28;19952;-50
2022/11/20 08:40:37;;;;;;;;;;;2.50;91.90;;;;;;5011878;28;19929;-48
2022/11/20 08:43:05;;;;;;;;;;;2.60;92.00;;;;;;5013165;28;20212;-48
2022/11/20 08:45:30;;;;;;;;;;;2.60;92.00;;;;;;5008661;28;19928;-48
2022/11/20 08:48:00;;;;;;;;;;;2.70;92.00;;;;;;5012724;28;19906;-48
2022/11/20 08:50:27;;;;;;;;;;;2.80;91.90;;;;;;5011528;28;19913;-48
2022/11/20 08:52:54;;;;;;;;;;;2.80;91.90;;;;;;5006426;28;19967;-48
2022/11/20 08:55:20;;;;;;;;;;;2.90;92.00;;;;;;4993388;28;20005;-48
2022/11/20 08:57:47;;;;;;;;;;;3.00;92.00;;;;;;5007425;28;19996;-47
2022/11/20 09:00:16;;;;;;;;;;;3.20;91.90;;;;;;5010269;28;19910;-46
2022/11/20 09:02:43;;;;;;;;;;;3.40;92.10;;;;;;5006538;28;20433;-48
2022/11/20 09:05:10;;;;;;;;;;;3.60;91.90;;;;;;5010690;28;19917;-46
2022/11/20 09:07:35;;;;;;;;;;;3.90;91.70;;;;;;5015174;28;19920;-46
2022/11/20 09:10:01;;;;;;;;;;;4.00;91.30;;;;;;5013974;28;19967;-47
2022/11/20 09:12:28;;;;;;;;;;;4.20;90.70;;;;;;5015740;28;20289;-45
2022/11/20 09:14:54;;;;;;;;;;;4.10;90.20;;;;;;5012426;28;19944;-46
2022/11/20 09:17:20;;;;;;;;;;;4.20;90.10;;;;;;5015879;28;19914;-46
2022/11/20 09:19:47;;;;;;;;;;;4.20;90.00;;;;;;5011014;28;20248;-46
2022/11/20 09:22:16;;;;;;;;;;;4.20;89.90;;;;;;4996498;28;20004;-46
2022/11/20 09:24:43;;;;;;;;;;;4.00;89.90;;;;;;4996235;28;20267;-46
2022/11/20 09:27:09;;;;;;;;;;;4.00;90.00;;;;;;5006871;28;19913;-46
2022/11/20 09:29:36;;;;;;;;;;;4.00;89.90;;;;;;5010793;28;20012;-46
2022/11/20 09:32:06;;;;;;;;;;;3.90;89.90;;;;;;5009677;28;20000;-46
2022/11/20 09:34:33;;;;;;;;;;;3.90;89.90;;;;;;5006985;28;19909;-46
2022/11/20 09:36:59;;;;;;;;;;;3.80;90.10;;;;;;5013670;28;19905;-45
2022/11/20 09:39:26;;;;;;;;;;;3.80;90.20;;;;;;5003212;28;20320;-46
2022/11/20 09:42:10;;;;;;;;;;;3.90;90.30;;;;;;5001722;28;19913;-48
2022/11/20 09:44:51;;;;;;;;;;;3.90;90.30;;;;;;4999065;28;19913;-47
2022/11/20 09:47:35;;;;;;;;;;;3.90;90.30;;;;;;5005464;28;19940;-46
2022/11/20 09:50:06;;;;;;;;;;;3.90;90.40;;;;;;5019145;28;19919;-46
2022/11/20 09:52:50;;;;;;;;;;;3.90;90.30;;;;;;5004440;28;19914;-45
2022/11/20 09:55:18;;;;;;;;;;;3.90;90.40;;;;;;5007340;28;19910;-46
2022/11/20 09:57:45;;;;;;;;;;;3.90;90.40;;;;;;5014097;28;19905;-45
2022/11/20 10:00:16;;;;;;;;;;;4.00;90.60;;;;;;5008464;28;20368;-46
2022/11/20 10:03:00;;;;;;;;;;;4.00;90.60;;;;;;4995953;28;19917;-48
2022/11/20 10:05:30;;;;;;;;;;;4.00;90.60;;;;;;4997409;28;19922;-46
2022/11/20 10:08:16;;;;;;;;;;;4.10;90.60;;;;;;4997351;28;19917;-45
2022/11/20 10:10:45;;;;;;;;;;;4.10;90.60;;;;;;4996862;28;20001;-46
2022/11/20 10:13:29;;;;;;;;;;;4.10;90.40;;;;;;5010655;28;20262;-45
2022/11/20 10:16:14;;;;;;;;;;;4.10;90.50;;;;;;4999967;28;19924;-46
2022/11/20 10:19:03;;;;;;;;;;;4.00;90.50;;;;;;5014266;28;20335;-45
2022/11/20 10:21:47;;;;;;;;;;;3.90;90.20;;;;;;5013694;28;19909;-46
2022/11/20 10:24:23;;;;;;;;;;;3.90;90.30;;;;;;5015490;28;19923;-45
2022/11/20 10:27:07;;;;;;;;;;;3.90;90.50;;;;;;4998528;28;19921;-45
2022/11/20 10:29:33;;;;;;;;;;;3.90;90.40;;;;;;5001587;28;19967;-45
2022/11/20 10:32:01;;;;;;;;;;;4.10;90.70;;;;;;5004400;28;20266;-46
2022/11/20 10:34:51;;;;;;;;;;;4.20;90.80;;;;;;5003567;28;19923;-45
2022/11/20 10:37:35;;;;;;;;;;;4.20;90.40;;;;;;5013811;28;19913;-45
2022/11/20 10:40:19;;;;;;;;;;;4.30;90.50;;;;;;5012078;28;19909;-45
2022/11/20 10:42:48;;;;;;;;;;;4.40;90.20;;;;;;4995333;28;19910;-46
2022/11/20 10:45:26;;;;;;;;;;;4.30;90.00;;;;;;5001450;28;20290;-46
2022/11/20 10:48:07;;;;;;;;;;;4.40;90.20;;;;;;4995214;28;19951;-45
2022/11/20 10:50:42;;;;;;;;;;;4.40;90.30;;;;;;5003299;28;19909;-47
2022/11/20 10:53:26;;;;;;;;;;;4.40;90.00;;;;;;5001104;28;19909;-45
2022/11/20 10:56:00;;;;;;;;;;;4.40;90.20;;;;;;4995220;28;20323;-45
2022/11/20 10:58:47;;;;;;;;;;;4.40;90.10;;;;;;5012821;28;19905;-45
2022/11/20 11:01:24;;;;;;;;;;;4.40;90.10;;;;;;5012548;28;20378;-46
2022/11/20 11:03:54;;;;;;;;;;;4.50;90.00;;;;;;5012966;28;20001;-45
2022/11/20 11:06:38;;;;;;;;;;;4.50;90.00;;;;;;5011661;28;20381;-44
2022/11/20 11:09:25;;;;;;;;;;;4.40;90.00;;;;;;5010563;28;19917;-44
2022/11/20 11:11:52;;;;;;;;;;;4.40;90.00;;;;;;5013164;28;20602;-44
2022/11/20 11:14:18;;;;;;;;;;;4.40;89.70;;;;;;5011478;28;20015;-45
2022/11/20 11:16:53;;;;;;;;;;;4.40;89.90;;;;;;5013324;28;19988;-44
2022/11/20 11:19:20;;;;;;;;;;;4.40;89.80;;;;;;5013322;28;19937;-45
2022/11/20 11:21:54;;;;;;;;;;;4.40;90.00;;;;;;4994619;28;19909;-45
2022/11/20 11:24:28;;;;;;;;;;;4.50;89.80;;;;;;5000969;28;20550;-44
2022/11/20 11:27:12;;;;;;;;;;;4.50;89.90;;;;;;5009091;28;19915;-44
2022/11/20 11:29:39;;;;;;;;;;;4.60;90.00;;;;;;5011827;28;19910;-45
2022/11/20 11:32:13;;;;;;;;;;;4.60;89.40;;;;;;5028485;28;20357;-45
2022/11/20 11:34:40;;;;;;;;;;;4.60;89.40;;;;;;5011137;28;19917;-47
2022/11/20 11:37:25;;;;;;;;;;;4.70;89.40;;;;;;5011877;28;19932;-45
2022/11/20 11:39:54;;;;;;;;;;;4.70;89.50;;;;;;5010668;28;20263;-46
2022/11/20 11:42:21;;;;;;;;;;;4.70;89.40;;;;;;5011155;28;19914;-44
2022/11/20 11:45:06;;;;;;;;;;;4.70;89.40;;;;;;5013252;28;20310;-44
2022/11/20 11:47:31;;;;;;;;;;;4.50;88.70;;;;;;5011589;28;19914;-45
2022/11/20 11:50:02;;;;;;;;;;;4.50;89.00;;;;;;5008618;28;20302;-43
2022/11/20 11:52:35;;;;;;;;;;;4.50;88.80;;;;;;4992981;28;19906;-43
2022/11/20 11:55:03;;;;;;;;;;;4.60;89.00;;;;;;4993332;28;20216;-44
2022/11/20 11:57:51;;;;;;;;;;;4.60;89.10;;;;;;5006885;28;19967;-44
2022/11/20 12:00:19;;;;;;;;;;;4.40;88.70;;;;;;5003972;28;19909;-44
2022/11/20 12:03:04;;;;;;;;;;;4.50;89.00;;;;;;5001229;28;19971;-44
2022/11/20 12:05:43;;;;;;;;;;;4.60;89.10;;;;;;5011019;28;20239;-44
2022/11/20 12:08:14;;;;;;;;;;;4.80;88.80;;;;;;5011831;28;19921;-43
2022/11/20 12:10:49;;;;;;;;;;;4.90;88.40;;;;;;5012190;28;19916;-44
2022/11/20 12:13:25;;;;;;;;;;;4.90;87.60;;;;;;5002857;28;19916;-43
2022/11/20 12:15:52;;;;;;;;;;;4.90;87.10;;;;;;4997344;28;19916;-44
2022/11/20 12:18:20;;;;;;;;;;;4.90;86.60;;;;;;5011771;28;19917;-44
2022/11/20 12:20:58;;;;;;;;;;;4.90;86.80;;;;;;5011650;28;19983;-43
2022/11/20 12:23:39;;;;;;;;;;;4.90;87.10;;;;;;5005671;28;20334;-44
2022/11/20 12:26:13;;;;;;;;;;;5.10;87.00;;;;;;5005284;28;19921;-44
2022/11/20 12:28:58;;;;;;;;;;;5.10;86.40;;;;;;4990691;28;20453;-43
2022/11/20 12:31:35;;;;;;;;;;;5.00;86.30;;;;;;5003285;28;19913;-44
2022/11/20 12:34:19;;;;;;;;;;;4.90;86.90;;;;;;5001982;28;19963;-43
2022/11/20 12:37:03;;;;;;;;;;;4.90;87.10;;;;;;5000069;28;19967;-46
2022/11/20 12:39:38;;;;;;;;;;;4.70;87.00;;;;;;5000067;28;19956;-46
2022/11/20 12:45:26;;;;;;;;;;;4.40;87.80;;;;;;5011177;28;19924;-42
2022/11/20 12:47:58;;;;;;;;;;;4.40;88.20;;;;;;5007328;28;19936;-43
2022/11/20 12:50:23;;;;;;;;;;;4.30;88.50;;;;;;5016125;28;19984;-44
2022/11/20 12:52:52;;;;;;;;;;;4.30;88.60;;;;;;5014423;28;20009;-42
2022/11/20 12:55:25;;;;;;;;;;;4.20;88.50;;;;;;5013041;28;19920;-43
2022/11/20 12:57:56;;;;;;;;;;;4.20;88.60;;;;;;5007393;28;19914;-46
2022/11/20 13:00:24;;;;;;;;;;;4.20;89.00;;;;;;5014650;28;19913;-42
2022/11/20 13:03:07;;;;;;;;;;;4.30;89.00;;;;;;5016318;28;20008;-43
2022/11/20 13:05:51;;;;;;;;;;;4.30;89.10;;;;;;5014995;28;19921;-42
2022/11/20 13:08:38;;;;;;;;;;;4.20;88.90;;;;;;4995994;28;19921;-43
2022/11/20 13:11:22;;;;;;;;;;;4.20;88.70;;;;;;5015300;28;19963;-43
2022/11/20 13:13:56;;;;;;;;;;;4.20;88.90;;;;;;5014178;28;19924;-42
2022/11/20 13:16:25;;;;;;;;;;;4.20;89.10;;;;;;5024570;28;19909;-42
2022/11/20 13:18:52;;;;;;;;;;;4.20;88.90;;;;;;5020963;28;20361;-43
2022/11/20 13:21:20;;;;;;;;;;;4.20;89.10;;;;;;4997599;28;19905;-45
2022/11/20 13:23:47;;;;;;;;;;;4.20;88.80;;;;;;5004467;28;20004;-42
2022/11/20 13:26:31;;;;;;;;;;;4.30;88.90;;;;;;5008210;28;19917;-43
2022/11/20 13:29:11;;;;;;;;;;;4.20;89.00;;;;;;5011652;28;19992;-43
2022/11/20 13:31:41;;;;;;;;;;;4.30;89.00;;;;;;5009118;28;19906;-44
2022/11/20 13:34:12;;;;;;;;;;;4.30;88.90;;;;;;5002047;28;19914;-45
2022/11/20 13:36:49;;;;;;;;;;;4.20;88.40;;;;;;5011360;28;19920;-43
2022/11/20 13:39:24;;;;;;;;;;;4.00;88.30;;;;;;5015158;28;20246;-43
2022/11/20 13:41:58;;;;;;;;;;;4.00;88.50;;;;;;5006649;28;19921;-43
2022/11/20 13:44:42;;;;;;;;;;;3.90;88.60;;;;;;5003550;28;20283;-44
2022/11/20 13:47:24;;;;;;;;;;;3.90;88.80;;;;;;5001954;28;19913;-43
2022/11/20 13:49:51;;;;;;;;;;;3.80;88.90;;;;;;5004891;28;19921;-42
2022/11/20 13:52:35;;;;;;;;;;;3.80;89.10;;;;;;5004026;28;19920;-42
2022/11/20 13:55:24;;;;;;;;;;;3.80;89.30;;;;;;5008800;28;19913;-43
2022/11/20 13:57:56;;;;;;;;;;;3.80;89.40;;;;;;5005521;28;19921;-42
2022/11/20 14:00:26;;;;;;;;;;;3.70;89.40;;;;;;5011853;28;19913;-44
2022/11/20 14:03:07;;;;;;;;;;;3.80;89.40;;;;;;5003964;28;19910;-44
2022/11/20 14:05:35;;;;;;;;;;;3.80;89.60;;;;;;5011346;28;19914;-42
2022/11/20 14:08:03;;;;;;;;;;;3.80;89.50;;;;;;5003905;28;19932;-43
2022/11/20 14:10:30;;;;;;;;;;;3.80;89.30;;;;;;5010190;28;19920;-42
2022/11/20 14:12:57;;;;;;;;;;;3.80;89.20;;;;;;5005888;28;19913;-45
2022/11/20 14:15:27;;;;;;;;;;;3.80;89.30;;;;;;5007259;28;19910;-43
2022/11/20 14:17:54;;;;;;;;;;;3.70;89.30;;;;;;5011165;28;20338;-43
2022/11/20 14:20:25;;;;;;;;;;;3.80;89.40;;;;;;5005153;28;20235;-46
2022/11/20 14:22:52;;;;;;;;;;;3.70;89.20;;;;;;5010138;28;20546;-44
2022/11/20 14:25:36;;;;;;;;;;;3.70;88.90;;;;;;5005825;28;19920;-42
2022/11/20 14:28:04;;;;;;;;;;;3.70;89.30;;;;;;5005693;28;19917;-42
2022/11/20 14:30:37;;;;;;;;;;;3.70;89.50;;;;;;5008651;28;19910;-42
2022/11/20 14:33:04;;;;;;;;;;;3.70;89.40;;;;;;4982838;28;19926;-42
2022/11/20 14:35:33;;;;;;;;;;;3.70;89.40;;;;;;5011592;28;19917;-42
2022/11/20 14:38:01;;;;;;;;;;;3.70;89.40;;;;;;5007637;28;19913;-44
2022/11/20 14:40:38;;;;;;;;;;;3.70;89.50;;;;;;5010559;28;19913;-42
2022/11/20 14:43:22;;;;;;;;;;;3.70;89.60;;;;;;5005923;28;19917;-46
2022/11/20 14:46:03;;;;;;;;;;;3.60;89.50;;;;;;5007649;28;19964;-43
2022/11/20 14:48:38;;;;;;;;;;;3.60;89.50;;;;;;5009635;28;19917;-43
2022/11/20 14:51:05;;;;;;;;;;;3.60;89.60;;;;;;5013900;28;20004;-42
2022/11/20 14:53:32;;;;;;;;;;;3.50;89.40;;;;;;4995029;28;19952;-45
2022/11/20 14:56:00;;;;;;;;;;;3.40;89.60;;;;;;5008055;28;20254;-42
2022/11/20 14:58:34;;;;;;;;;;;3.30;89.70;;;;;;5012046;28;20621;-45
2022/11/20 15:01:18;;;;;;;;;;;3.30;89.60;;;;;;5008059;28;19909;-43
2022/11/20 15:03:45;;;;;;;;;;;3.20;89.70;;;;;;5009995;28;19914;-43